createdAt,value
2023-02-08T00:01:00.924Z,-6.10
2023-02-08T00:03:29.286Z,-6.14
2023-02-08T00:05:56.912Z,-6.19
2023-02-08T00:08:24.546Z,-6.21
2023-02-08T00:10:52.444Z,-6.20
2023-02-08T00:13:20.816Z,-6.22
2023-02-08T00:15:48.588Z,-6.24
2023-02-08T00:18:16.132Z,-6.26
2023-02-08T00:20:44.357Z,-6.29
2023-02-08T00:23:13.202Z,-6.28
2023-02-08T00:25:41.510Z,-6.27
2023-02-08T00:28:13.756Z,-6.28
2023-02-08T00:30:43.466Z,-6.26
2023-02-08T00:33:12.190Z,-6.27
2023-02-08T00:35:41.219Z,-6.24
2023-02-08T00:38:08.769Z,-6.16
2023-02-08T00:40:36.230Z,-6.12
2023-02-08T00:43:03.972Z,-6.12
2023-02-08T00:45:33.077Z,-6.10
2023-02-08T00:48:00.549Z,-6.04
2023-02-08T00:50:28.053Z,-6.02
2023-02-08T00:52:55.504Z,-5.92
2023-02-08T00:55:22.971Z,-5.92
2023-02-08T00:57:50.525Z,-5.90
2023-02-08T01:00:18.310Z,-5.93
2023-02-08T01:02:45.883Z,-5.97
2023-02-08T01:05:13.416Z,-6.02
2023-02-08T01:07:41.201Z,-6.03
2023-02-08T01:10:12.516Z,-6.05
2023-02-08T01:12:41.979Z,-6.10
2023-02-08T01:15:09.780Z,-6.08
2023-02-08T01:17:38.804Z,-6.03
2023-02-08T01:20:06.738Z,-6.01
2023-02-08T01:22:34.247Z,-5.95
2023-02-08T01:25:01.972Z,-5.94
2023-02-08T01:27:30.410Z,-5.92
2023-02-08T01:29:57.850Z,-5.84
2023-02-08T01:32:25.334Z,-5.89
2023-02-08T01:34:54.507Z,-5.92
2023-02-08T01:37:22.381Z,-5.96
2023-02-08T01:39:49.896Z,-5.99
2023-02-08T01:42:19.359Z,-6.04
2023-02-08T01:45:20.910Z,-6.06
2023-02-08T01:47:54.879Z,-6.00
2023-02-08T01:50:27.373Z,-5.99
2023-02-08T01:52:55.015Z,-5.99
2023-02-08T01:55:34.417Z,-5.97
2023-02-08T01:58:06.384Z,-5.98
2023-02-08T02:00:34.179Z,-5.93
2023-02-08T02:03:04.022Z,-5.86
2023-02-08T02:05:38.650Z,-5.80
2023-02-08T02:08:07.147Z,-5.81
2023-02-08T02:10:36.423Z,-5.80
2023-02-08T02:13:17.489Z,-5.81
2023-02-08T02:15:46.284Z,-5.73
2023-02-08T02:18:23.350Z,-5.68
2023-02-08T02:21:10.227Z,-5.66
2023-02-08T02:24:11.854Z,-5.68
2023-02-08T02:26:39.311Z,-5.64
2023-02-08T02:29:26.049Z,-5.63
2023-02-08T02:32:25.357Z,-5.67
2023-02-08T02:35:28.211Z,-5.72
2023-02-08T02:38:07.868Z,-5.76
2023-02-08T02:41:15.044Z,-5.85
2023-02-08T02:43:47.365Z,-5.84
2023-02-08T02:46:41.812Z,-5.92
2023-02-08T02:49:37.262Z,-5.96
2023-02-08T02:52:26.261Z,-6.01
2023-02-08T02:54:59.293Z,-6.03
2023-02-08T02:57:32.558Z,-6.15
2023-02-08T03:00:00.976Z,-6.17
2023-02-08T03:02:28.844Z,-6.11
2023-02-08T03:04:57.914Z,-6.14
2023-02-08T03:07:28.322Z,-6.17
2023-02-08T03:10:20.755Z,-6.17
2023-02-08T03:13:19.598Z,-6.10
2023-02-08T03:16:13.229Z,-6.08
2023-02-08T03:19:05.090Z,-5.98
2023-02-08T03:21:35.416Z,-6.10
2023-02-08T03:24:17.987Z,-6.19
2023-02-08T03:27:04.904Z,-6.34
2023-02-08T03:29:45.052Z,-6.41
2023-02-08T03:32:35.219Z,-6.37
2023-02-08T03:35:16.431Z,-6.39
2023-02-08T03:37:53.851Z,-6.44
2023-02-08T03:40:27.460Z,-6.42
2023-02-08T03:42:59.030Z,-6.44
2023-02-08T03:45:31.759Z,-6.47
2023-02-08T03:48:03.797Z,-6.46
2023-02-08T03:50:35.056Z,-6.52
2023-02-08T03:53:04.181Z,-6.52
2023-02-08T03:55:35.598Z,-6.42
2023-02-08T03:58:19.971Z,-6.28
2023-02-08T04:01:06.034Z,-6.30
2023-02-08T04:03:35.165Z,-6.33
2023-02-08T04:06:03.112Z,-6.32
2023-02-08T04:08:30.722Z,-6.33
2023-02-08T04:10:58.723Z,-6.33
2023-02-08T04:13:26.234Z,-6.36
2023-02-08T04:15:53.825Z,-6.27
2023-02-08T04:18:21.360Z,-6.20
2023-02-08T04:20:48.781Z,-6.17
2023-02-08T04:23:16.292Z,-6.15
2023-02-08T04:25:44.183Z,-5.91
2023-02-08T04:28:11.797Z,-5.91
2023-02-08T04:30:39.523Z,-5.83
2023-02-08T04:33:07.222Z,-5.83
2023-02-08T04:35:34.683Z,-5.79
2023-02-08T04:38:02.249Z,-5.78
2023-02-08T04:40:30.034Z,-5.82
2023-02-08T04:42:57.638Z,-5.82
2023-02-08T04:45:27.150Z,-5.92
2023-02-08T04:47:54.720Z,-5.93
2023-02-08T04:50:22.169Z,-6.01
2023-02-08T04:52:49.728Z,-5.97
2023-02-08T04:55:17.140Z,-6.13
2023-02-08T04:57:44.787Z,-6.19
2023-02-08T05:00:13.023Z,-6.10
2023-02-08T05:02:40.582Z,-6.20
2023-02-08T05:05:08.345Z,-6.22
2023-02-08T05:07:35.895Z,-6.32
2023-02-08T05:10:04.990Z,-6.32
2023-02-08T05:12:32.582Z,-6.35
2023-02-08T05:15:00.005Z,-6.42
2023-02-08T05:17:27.519Z,-6.46
2023-02-08T05:19:54.981Z,-6.41
2023-02-08T05:22:22.880Z,-6.48
2023-02-08T05:24:50.336Z,-6.58
2023-02-08T05:27:17.865Z,-6.55
2023-02-08T05:29:45.335Z,-6.54
2023-02-08T05:32:12.973Z,-6.52
2023-02-08T05:34:40.645Z,-6.46
2023-02-08T05:37:09.056Z,-6.44
2023-02-08T05:39:58.044Z,-6.35
2023-02-08T05:42:25.556Z,-6.35
2023-02-08T05:44:53.065Z,-6.39
2023-02-08T05:47:20.715Z,-6.36
2023-02-08T05:49:48.120Z,-6.34
2023-02-08T05:52:15.635Z,-6.42
2023-02-08T05:54:43.132Z,-6.39
2023-02-08T05:57:10.655Z,-6.44
2023-02-08T05:59:38.102Z,-6.52
2023-02-08T06:02:05.576Z,-6.58
2023-02-08T06:04:33.079Z,-6.61
2023-02-08T06:07:00.610Z,-6.65
2023-02-08T06:09:28.099Z,-6.71
2023-02-08T06:11:55.572Z,-6.76
2023-02-08T06:14:23.320Z,-6.81
2023-02-08T06:16:50.820Z,-6.72
2023-02-08T06:19:18.479Z,-6.76
2023-02-08T06:21:45.952Z,-6.79
2023-02-08T06:24:13.852Z,-6.84
2023-02-08T06:26:41.334Z,-6.92
2023-02-08T06:29:10.355Z,-6.84
2023-02-08T06:31:37.823Z,-6.80
2023-02-08T06:34:05.251Z,-6.85
2023-02-08T06:36:32.974Z,-6.89
2023-02-08T06:39:00.450Z,-6.87
2023-02-08T06:41:27.993Z,-6.88
2023-02-08T06:43:55.416Z,-6.76
2023-02-08T06:46:22.943Z,-6.66
2023-02-08T06:48:50.405Z,-6.37
2023-02-08T06:51:17.863Z,-6.16
2023-02-08T06:53:45.410Z,-5.92
2023-02-08T06:56:12.890Z,-5.65
2023-02-08T06:58:40.354Z,-5.47
2023-02-08T07:01:12.225Z,-5.19
2023-02-08T07:03:40.523Z,-4.89
2023-02-08T07:06:15.504Z,-4.55
2023-02-08T07:08:43.508Z,-4.34
2023-02-08T07:11:13.824Z,-4.17
2023-02-08T07:13:42.086Z,-4.45
2023-02-08T07:16:10.261Z,-4.22
2023-02-08T07:18:37.845Z,-3.95
2023-02-08T07:21:05.782Z,-3.68
2023-02-08T07:23:33.339Z,-3.63
2023-02-08T07:26:03.169Z,-3.55
2023-02-08T07:28:31.285Z,-3.65
2023-02-08T07:30:58.757Z,-3.56
2023-02-08T07:33:26.716Z,-3.32
2023-02-08T07:35:54.441Z,-3.18
2023-02-08T07:38:22.014Z,-3.54
2023-02-08T07:40:49.520Z,-3.01
2023-02-08T07:43:17.003Z,-2.75
2023-02-08T07:45:54.140Z,-2.49
2023-02-08T07:48:21.921Z,-2.23
2023-02-08T07:50:49.358Z,-2.16
2023-02-08T07:53:16.862Z,-2.65
2023-02-08T07:55:45.829Z,-2.46
2023-02-08T07:58:14.469Z,-2.48
2023-02-08T08:00:42.127Z,-2.37
2023-02-08T08:03:10.603Z,-2.68
2023-02-08T08:05:41.469Z,-2.62
2023-02-08T08:08:10.351Z,-2.49
2023-02-08T08:10:38.294Z,-2.37
2023-02-08T08:13:06.082Z,-2.40
2023-02-08T08:15:33.617Z,-2.14
2023-02-08T08:18:01.203Z,-2.29
2023-02-08T08:20:28.733Z,-2.30
2023-02-08T08:22:56.371Z,-2.19
2023-02-08T08:25:23.952Z,-2.22
2023-02-08T08:27:51.498Z,-2.22
2023-02-08T08:30:19.012Z,-2.45
2023-02-08T08:32:46.735Z,-2.67
2023-02-08T08:35:14.493Z,-2.16
2023-02-08T08:37:42.100Z,-2.42
2023-02-08T08:40:10.269Z,-2.39
2023-02-08T08:42:40.027Z,-2.41
2023-02-08T08:45:09.155Z,-2.74
2023-02-08T08:47:36.729Z,-2.59
2023-02-08T08:50:04.330Z,-2.46
2023-02-08T08:52:31.788Z,-2.24
2023-02-08T08:54:59.354Z,-2.11
2023-02-08T08:57:26.802Z,-2.23
2023-02-08T08:59:54.244Z,-2.31
2023-02-08T09:02:21.765Z,-2.65
2023-02-08T09:04:49.350Z,-2.74
2023-02-08T09:07:16.819Z,-2.66
2023-02-08T09:09:48.096Z,-2.64
2023-02-08T09:12:16.145Z,-2.59
2023-02-08T09:14:45.006Z,-2.52
2023-02-08T09:17:12.783Z,-2.29
2023-02-08T09:19:40.267Z,-2.42
2023-02-08T09:22:07.775Z,-2.75
2023-02-08T09:24:35.506Z,-2.56
2023-02-08T09:27:03.755Z,-2.56
2023-02-08T09:29:32.939Z,-2.36
2023-02-08T09:32:00.656Z,-2.22
2023-02-08T09:34:28.424Z,-2.04
2023-02-08T09:36:55.871Z,-2.06
2023-02-08T09:39:25.381Z,-2.31
2023-02-08T09:41:52.774Z,-2.47
2023-02-08T09:44:42.950Z,-2.11
2023-02-08T09:47:19.279Z,-2.11
2023-02-08T09:50:21.398Z,-2.04
2023-02-08T09:53:00.988Z,-1.72
2023-02-08T09:55:44.048Z,-1.74
2023-02-08T09:58:28.958Z,-1.78
2023-02-08T10:00:56.836Z,-2.02
2023-02-08T10:03:33.949Z,-1.83
2023-02-08T10:06:03.753Z,-1.67
2023-02-08T10:08:35.278Z,-1.69
2023-02-08T10:11:07.343Z,-1.69
2023-02-08T10:13:51.404Z,-1.62
2023-02-08T10:16:36.879Z,-1.71
2023-02-08T10:19:21.520Z,-1.64
2023-02-08T10:22:08.818Z,-1.47
2023-02-08T10:24:54.612Z,-1.55
2023-02-08T10:27:48.047Z,-1.67
2023-02-08T10:30:21.321Z,-2.01
2023-02-08T10:33:23.943Z,-1.83
2023-02-08T10:35:54.122Z,-1.75
2023-02-08T10:38:21.570Z,-1.44
2023-02-08T10:41:03.014Z,-1.42
2023-02-08T10:43:35.286Z,-1.23
2023-02-08T10:46:26.325Z,-1.36
2023-02-08T10:49:11.596Z,-1.38
2023-02-08T10:51:39.228Z,-1.27
2023-02-08T10:54:06.749Z,-1.24
2023-02-08T10:56:48.798Z,-1.02
2023-02-08T10:59:28.230Z,-1.21
2023-02-08T11:01:56.938Z,-1.13
2023-02-08T11:04:24.604Z,-1.12
2023-02-08T11:06:54.612Z,-1.30
2023-02-08T11:09:30.486Z,-1.23
2023-02-08T11:12:00.855Z,-1.16
2023-02-08T11:14:47.187Z,-1.06
2023-02-08T11:17:34.209Z,-1.07
2023-02-08T11:20:01.965Z,-0.92
2023-02-08T11:22:31.483Z,-0.89
2023-02-08T11:25:02.053Z,-1.02
2023-02-08T11:27:33.566Z,-1.05
2023-02-08T11:30:21.158Z,-1.04
2023-02-08T11:33:08.992Z,-1.01
2023-02-08T11:35:37.908Z,-1.02
2023-02-08T11:38:05.452Z,-0.65
2023-02-08T11:40:42.804Z,-0.61
2023-02-08T11:43:29.878Z,-0.53
2023-02-08T11:45:59.518Z,-0.48
2023-02-08T11:48:38.081Z,-0.60
2023-02-08T11:51:06.916Z,-0.76
2023-02-08T11:53:39.704Z,-0.46
2023-02-08T11:56:19.876Z,-0.35
2023-02-08T11:58:56.448Z,-0.41
2023-02-08T12:01:29.572Z,-0.48
2023-02-08T12:03:59.828Z,-0.36
2023-02-08T12:06:47.507Z,-0.24
2023-02-08T12:09:39.278Z,-0.32
2023-02-08T12:12:53.208Z,-0.64
2023-02-08T12:15:57.129Z,-0.84
2023-02-08T12:19:01.359Z,-0.53
2023-02-08T12:21:44.947Z,-0.68
2023-02-08T12:24:25.004Z,-0.59
2023-02-08T12:27:12.249Z,-0.87
2023-02-08T12:29:55.907Z,-0.90
2023-02-08T12:32:48.295Z,-0.95
2023-02-08T12:35:45.730Z,-1.02
2023-02-08T12:38:51.559Z,-0.99
2023-02-08T12:41:30.296Z,-1.14
2023-02-08T12:44:10.004Z,-1.15
2023-02-08T12:47:14.425Z,-0.98
2023-02-08T12:49:53.472Z,-1.14
2023-02-08T12:52:42.512Z,-1.09
2023-02-08T12:55:26.602Z,-1.02
2023-02-08T12:57:59.153Z,-1.07
2023-02-08T13:00:30.418Z,-1.19
2023-02-08T13:03:32.154Z,-1.26
2023-02-08T13:06:04.558Z,-1.15
2023-02-08T13:08:35.201Z,-1.10
2023-02-08T13:11:19.844Z,-1.03
2023-02-08T13:14:14.291Z,-1.03
2023-02-08T13:16:47.045Z,-0.85
2023-02-08T13:19:36.001Z,-0.94
2023-02-08T13:22:05.270Z,-0.83
2023-02-08T13:24:39.404Z,-1.11
2023-02-08T13:27:08.318Z,-1.10
2023-02-08T13:29:36.498Z,-1.14
2023-02-08T13:32:09.789Z,-1.21
2023-02-08T13:34:43.159Z,-1.07
2023-02-08T13:37:30.955Z,-1.17
2023-02-08T13:40:03.538Z,-0.93
2023-02-08T13:42:39.795Z,-1.00
2023-02-08T13:45:09.991Z,-0.77
2023-02-08T13:47:46.370Z,-0.68
2023-02-08T13:50:48.295Z,-0.97
2023-02-08T13:53:17.500Z,-1.03
2023-02-08T13:56:00.232Z,-1.00
2023-02-08T13:59:01.163Z,-0.95
2023-02-08T14:01:33.101Z,-1.05
2023-02-08T14:04:12.295Z,-1.27
2023-02-08T14:06:46.792Z,-1.23
2023-02-08T14:09:27.316Z,-1.29
2023-02-08T14:12:01.371Z,-1.26
2023-02-08T14:14:32.417Z,-1.38
2023-02-08T14:17:19.326Z,-1.30
2023-02-08T14:20:00.490Z,-1.24
2023-02-08T14:22:39.187Z,-1.38
2023-02-08T14:25:26.478Z,-1.53
2023-02-08T14:28:32.676Z,-1.45
2023-02-08T14:31:04.658Z,-1.57
2023-02-08T14:33:36.159Z,-1.71
2023-02-08T14:36:07.246Z,-1.68
2023-02-08T14:38:51.424Z,-1.63
2023-02-08T14:41:43.707Z,-1.59
2023-02-08T14:44:39.448Z,-1.57
2023-02-08T14:47:37.023Z,-1.62
2023-02-08T14:50:04.595Z,-1.64
2023-02-08T14:52:35.518Z,-1.64
2023-02-08T14:55:08.542Z,-1.65
2023-02-08T14:57:37.032Z,-1.70
2023-02-08T15:00:25.738Z,-1.68
2023-02-08T15:02:54.221Z,-1.60
2023-02-08T15:05:39.132Z,-1.68
2023-02-08T15:08:06.696Z,-1.60
2023-02-08T15:10:35.280Z,-1.60
2023-02-08T15:13:06.866Z,-1.69
2023-02-08T15:15:39.138Z,-1.71
2023-02-08T15:18:18.689Z,-1.61
2023-02-08T15:21:17.205Z,-1.78
2023-02-08T15:24:04.278Z,-1.77
2023-02-08T15:26:33.054Z,-1.80
2023-02-08T15:29:01.154Z,-1.85
2023-02-08T15:31:33.991Z,-1.98
2023-02-08T15:34:02.373Z,-1.98
2023-02-08T15:36:33.087Z,-2.02
2023-02-08T15:39:11.169Z,-2.06
2023-02-08T15:41:38.709Z,-2.08
2023-02-08T15:44:21.154Z,-2.03
2023-02-08T15:49:25.078Z,-2.25
2023-02-08T15:51:57.180Z,-2.36
2023-02-08T15:54:25.023Z,-2.38
2023-02-08T15:57:20.320Z,-2.43
2023-02-08T15:59:48.993Z,-2.46
2023-02-08T16:02:18.503Z,-2.47
2023-02-08T16:04:47.235Z,-2.51
2023-02-08T16:07:45.914Z,-2.57
2023-02-08T16:10:28.467Z,-2.60
2023-02-08T16:12:59.396Z,-2.61
2023-02-08T16:15:41.714Z,-2.60
2023-02-08T16:18:33.944Z,-2.65
2023-02-08T16:21:04.504Z,-2.63
2023-02-08T16:23:34.519Z,-2.68
2023-02-08T16:26:19.365Z,-2.71
2023-02-08T16:28:53.976Z,-2.75
2023-02-08T16:31:26.953Z,-2.81
2023-02-08T16:34:00.048Z,-2.80
2023-02-08T16:36:41.406Z,-2.83
2023-02-08T16:39:15.032Z,-2.85
2023-02-08T16:42:13.977Z,-2.88
2023-02-08T16:44:58.012Z,-2.91
2023-02-08T16:47:52.139Z,-2.93
2023-02-08T16:50:24.440Z,-2.94
2023-02-08T16:52:59.991Z,-2.97
2023-02-08T16:55:33.045Z,-3.10
2023-02-08T16:58:00.620Z,-3.14
2023-02-08T17:00:33.983Z,-3.16
2023-02-08T17:03:01.717Z,-3.22
2023-02-08T17:05:32.109Z,-3.22
2023-02-08T17:08:00.176Z,-3.24
2023-02-08T17:10:30.905Z,-3.30
2023-02-08T17:13:21.638Z,-3.33
2023-02-08T17:15:49.522Z,-3.34
2023-02-08T17:18:17.392Z,-3.39
2023-02-08T17:20:44.873Z,-3.39
2023-02-08T17:23:13.207Z,-3.37
2023-02-08T17:25:40.784Z,-3.42
2023-02-08T17:28:17.288Z,-3.35
2023-02-08T17:30:46.778Z,-3.36
2023-02-08T17:33:18.517Z,-3.31
2023-02-08T17:35:51.435Z,-3.42
2023-02-08T17:38:20.708Z,-3.43
2023-02-08T17:40:48.228Z,-3.44
2023-02-08T17:43:16.163Z,-3.52
2023-02-08T17:45:44.853Z,-3.53
2023-02-08T17:48:15.690Z,-3.58
2023-02-08T17:50:48.038Z,-3.53
2023-02-08T17:53:16.042Z,-3.62
2023-02-08T17:55:45.442Z,-3.64
2023-02-08T17:58:13.485Z,-3.62
2023-02-08T18:00:41.216Z,-3.57
2023-02-08T18:03:08.958Z,-3.50
2023-02-08T18:05:38.193Z,-3.49
2023-02-08T18:08:05.809Z,-3.40
2023-02-08T18:10:33.298Z,-3.43
2023-02-08T18:13:00.907Z,-3.36
2023-02-08T18:15:28.506Z,-3.39
2023-02-08T18:17:56.158Z,-3.37
2023-02-08T18:20:23.543Z,-3.39
2023-02-08T18:22:51.159Z,-3.46
2023-02-08T18:25:19.167Z,-3.50
2023-02-08T18:27:46.647Z,-3.49
2023-02-08T18:30:14.367Z,-3.48
2023-02-08T18:32:41.996Z,-3.55
2023-02-08T18:35:09.649Z,-3.58
2023-02-08T18:37:38.411Z,-3.63
2023-02-08T18:40:08.575Z,-3.77
2023-02-08T18:42:36.373Z,-3.68
2023-02-08T18:45:06.187Z,-3.71
2023-02-08T18:47:35.940Z,-3.69
2023-02-08T18:50:04.417Z,-3.86
2023-02-08T18:52:32.101Z,-3.98
2023-02-08T18:54:59.609Z,-4.01
2023-02-08T18:57:29.954Z,-3.96
2023-02-08T18:59:57.403Z,-3.98
2023-02-08T19:02:26.536Z,-3.85
2023-02-08T19:04:54.208Z,-3.93
2023-02-08T19:07:21.653Z,-3.90
2023-02-08T19:09:50.057Z,-3.85
2023-02-08T19:12:19.091Z,-3.87
2023-02-08T19:14:50.672Z,-3.82
2023-02-08T19:17:18.866Z,-3.65
2023-02-08T19:19:46.699Z,-3.62
2023-02-08T19:22:14.560Z,-3.42
2023-02-08T19:24:42.085Z,-3.47
2023-02-08T19:27:09.548Z,-3.37
2023-02-08T19:29:37.098Z,-3.42
2023-02-08T19:32:05.082Z,-3.48
2023-02-08T19:34:32.542Z,-3.47
2023-02-08T19:37:00.241Z,-3.67
2023-02-08T19:39:28.004Z,-3.67
2023-02-08T19:41:58.605Z,-3.73
2023-02-08T19:44:29.037Z,-3.75
2023-02-08T19:46:58.232Z,-3.58
2023-02-08T19:49:27.420Z,-3.48
2023-02-08T19:51:55.252Z,-3.42
2023-02-08T19:54:23.650Z,-3.32
2023-02-08T19:56:54.650Z,-3.29
2023-02-08T19:59:27.821Z,-3.26
2023-02-08T20:01:55.754Z,-3.17
2023-02-08T20:04:24.278Z,-3.08
2023-02-08T20:06:53.241Z,-3.05
2023-02-08T20:09:21.457Z,-2.94
2023-02-08T20:11:56.805Z,-2.89
2023-02-08T20:14:26.802Z,-2.78
2023-02-08T20:16:54.569Z,-2.76
2023-02-08T20:19:22.354Z,-2.80
2023-02-08T20:21:49.869Z,-2.79
2023-02-08T20:24:17.811Z,-2.76
2023-02-08T20:26:46.760Z,-2.73
2023-02-08T20:29:14.761Z,-2.73
2023-02-08T20:31:44.718Z,-2.75
2023-02-08T20:34:14.697Z,-2.75
2023-02-08T20:37:05.317Z,-2.68
2023-02-08T20:39:34.362Z,-2.65
2023-02-08T20:42:01.796Z,-2.64
2023-02-08T20:44:29.407Z,-2.64
2023-02-08T20:46:56.915Z,-2.62
2023-02-08T20:49:25.790Z,-2.72
2023-02-08T20:51:54.467Z,-2.67
2023-02-08T20:54:24.636Z,-2.64
2023-02-08T20:56:54.044Z,-2.68
2023-02-08T20:59:22.066Z,-2.69
2023-02-08T21:01:49.589Z,-2.68
2023-02-08T21:04:18.143Z,-2.66
2023-02-08T21:06:46.452Z,-2.67
2023-02-08T21:09:16.053Z,-2.76
2023-02-08T21:11:45.048Z,-2.70
2023-02-08T21:14:18.850Z,-2.69
2023-02-08T21:16:48.898Z,-2.74
2023-02-08T21:19:17.417Z,-2.77
2023-02-08T21:21:45.199Z,-2.78
2023-02-08T21:24:12.728Z,-2.83
2023-02-08T21:26:40.171Z,-2.72
2023-02-08T21:29:08.222Z,-2.67
2023-02-08T21:31:36.807Z,-2.76
2023-02-08T21:34:06.006Z,-2.74
2023-02-08T21:36:34.438Z,-2.66
2023-02-08T21:39:01.941Z,-2.83
2023-02-08T21:41:32.157Z,-2.87
2023-02-08T21:44:02.404Z,-2.82
2023-02-08T21:46:31.037Z,-2.87
2023-02-08T21:49:17.236Z,-2.89
2023-02-08T21:52:03.891Z,-2.88
2023-02-08T21:54:43.083Z,-2.88
2023-02-08T21:57:15.285Z,-2.96
2023-02-08T21:59:43.601Z,-2.92
2023-02-08T22:02:15.087Z,-2.97
2023-02-08T22:05:01.391Z,-2.98
2023-02-08T22:07:29.732Z,-2.98
2023-02-08T22:09:57.442Z,-3.02
2023-02-08T22:12:25.024Z,-3.00
2023-02-08T22:14:52.538Z,-2.98
2023-02-08T22:17:20.015Z,-3.00
2023-02-08T22:19:47.825Z,-3.03
2023-02-08T22:22:15.285Z,-3.05
2023-02-08T22:24:42.766Z,-3.05
2023-02-08T22:27:11.877Z,-3.07
2023-02-08T22:29:39.333Z,-3.14
2023-02-08T22:32:08.410Z,-3.10
2023-02-08T22:34:38.627Z,-3.11
2023-02-08T22:37:06.191Z,-3.07
2023-02-08T22:39:34.300Z,-3.07
2023-02-08T22:42:08.672Z,-3.10
2023-02-08T22:44:36.379Z,-3.11
2023-02-08T22:47:06.590Z,-3.05
2023-02-08T22:49:34.962Z,-3.09
2023-02-08T22:52:02.845Z,-3.00
2023-02-08T22:54:30.338Z,-3.09
2023-02-08T22:56:58.102Z,-3.10
2023-02-08T22:59:25.581Z,-3.04
2023-02-08T23:01:53.203Z,-3.05
2023-02-08T23:04:20.923Z,-2.96
2023-02-08T23:06:48.451Z,-3.00
2023-02-08T23:09:16.415Z,-2.98
2023-02-08T23:11:43.929Z,-2.87
2023-02-08T23:14:11.557Z,-2.84
2023-02-08T23:16:39.170Z,-2.97
2023-02-08T23:19:07.077Z,-2.91
2023-02-08T23:21:34.596Z,-2.96
2023-02-08T23:24:02.555Z,-3.14
2023-02-08T23:26:30.046Z,-3.06
2023-02-08T23:28:57.534Z,-3.03
2023-02-08T23:31:25.429Z,-3.05
2023-02-08T23:33:52.946Z,-3.03
2023-02-08T23:36:22.865Z,-3.07
2023-02-08T23:38:51.148Z,-3.09
2023-02-08T23:41:21.126Z,-3.05
2023-02-08T23:43:50.346Z,-3.10
2023-02-08T23:46:24.240Z,-3.02
2023-02-08T23:48:52.394Z,-3.05
2023-02-08T23:51:22.947Z,-3.06
2023-02-08T23:53:51.438Z,-3.05
2023-02-08T23:56:20.585Z,-3.14
2023-02-08T23:58:50.167Z,-3.06
